createdAt,value
2024-05-09T00:00:48.746Z,99511.98
2024-05-09T00:03:37.287Z,99510.42
2024-05-09T00:06:06.023Z,99506.39
2024-05-09T00:08:34.759Z,99505.35
2024-05-09T00:11:03.476Z,99501.86
2024-05-09T00:13:32.196Z,99495.58
2024-05-09T00:16:00.766Z,99491.73
2024-05-09T00:18:29.334Z,99489.48
2024-05-09T00:20:57.899Z,99484.25
2024-05-09T00:23:26.434Z,99486.35
2024-05-09T00:25:55.006Z,99488.11
2024-05-09T00:28:25.464Z,99488.46
2024-05-09T00:30:54.153Z,99492.33
2024-05-09T00:33:22.863Z,99485.88
2024-05-09T00:35:51.517Z,99483.27
2024-05-09T00:38:20.070Z,99475.08
2024-05-09T00:40:48.624Z,99475.96
2024-05-09T00:43:17.153Z,99476.13
2024-05-09T00:45:45.595Z,99474.95
2024-05-09T00:48:19.792Z,99471.81
2024-05-09T00:50:50.536Z,99471.85
2024-05-09T00:53:19.684Z,99471.34
2024-05-09T00:55:48.583Z,99478.89
2024-05-09T00:58:21.542Z,99488.89
2024-05-09T01:00:51.696Z,99492.39
2024-05-09T01:03:20.549Z,99491.55
2024-05-09T01:05:49.366Z,99492.42
2024-05-09T01:08:18.941Z,99492.45
2024-05-09T01:10:48.626Z,99488.61
2024-05-09T01:13:17.495Z,99495.45
2024-05-09T01:15:47.835Z,99496.33
2024-05-09T01:18:16.852Z,99498.77
2024-05-09T01:20:45.756Z,99497.23
2024-05-09T01:23:16.065Z,99498.27
2024-05-09T01:25:46.967Z,99498.96
2024-05-09T01:28:16.047Z,99502.98
2024-05-09T01:30:44.650Z,99505.45
2024-05-09T01:33:13.700Z,99505.44
2024-05-09T01:35:43.249Z,99505.80
2024-05-09T01:38:12.828Z,99505.45
2024-05-09T01:40:41.693Z,99506.68
2024-05-09T01:43:11.429Z,99508.08
2024-05-09T01:45:41.586Z,99509.27
2024-05-09T01:48:11.540Z,99516.09
2024-05-09T01:50:42.570Z,99509.81
2024-05-09T01:53:14.580Z,99505.98
2024-05-09T01:55:44.305Z,99506.86
2024-05-09T01:58:13.545Z,99504.23
2024-05-09T02:00:43.387Z,99501.25
2024-05-09T02:03:16.322Z,99503.35
2024-05-09T02:05:48.270Z,99504.59
2024-05-09T02:08:19.478Z,99505.29
2024-05-09T02:10:50.051Z,99501.97
2024-05-09T02:13:19.088Z,99499.33
2024-05-09T02:15:51.834Z,99498.98
2024-05-09T02:18:21.278Z,99497.60
2024-05-09T02:20:49.987Z,99499.34
2024-05-09T02:23:19.701Z,99501.77
2024-05-09T02:25:48.296Z,99502.64
2024-05-09T02:28:16.770Z,99511.51
2024-05-09T02:30:45.234Z,99510.09
2024-05-09T02:33:14.591Z,99510.45
2024-05-09T02:35:44.412Z,99508.17
2024-05-09T02:38:13.654Z,99508.16
2024-05-09T02:40:42.341Z,99504.31
2024-05-09T02:43:13.129Z,99501.52
2024-05-09T02:45:42.403Z,99504.66
2024-05-09T02:48:12.462Z,99502.40
2024-05-09T02:50:43.700Z,99503.77
2024-05-09T02:53:12.627Z,99501.67
2024-05-09T02:55:42.541Z,99498.17
2024-05-09T02:58:11.797Z,99501.67
2024-05-09T03:00:42.466Z,99504.61
2024-05-09T03:03:14.254Z,99505.81
2024-05-09T03:05:45.705Z,99505.99
2024-05-09T03:08:14.870Z,99503.52
2024-05-09T03:10:43.561Z,99506.83
2024-05-09T03:13:15.040Z,99509.09
2024-05-09T03:15:45.324Z,99511.52
2024-05-09T03:18:14.144Z,99514.31
2024-05-09T03:20:43.531Z,99514.11
2024-05-09T03:23:12.393Z,99515.84
2024-05-09T03:25:41.086Z,99516.37
2024-05-09T03:28:09.599Z,99516.36
2024-05-09T03:30:41.992Z,99515.48
2024-05-09T03:33:17.414Z,99521.92
2024-05-09T03:35:48.855Z,99526.28
2024-05-09T03:38:18.217Z,99525.41
2024-05-09T03:40:49.022Z,99522.77
2024-05-09T03:43:19.143Z,99522.77
2024-05-09T03:45:50.427Z,99524.70
2024-05-09T03:48:19.253Z,99526.62
2024-05-09T03:50:48.141Z,99526.80
2024-05-09T03:53:16.831Z,99527.84
2024-05-09T03:55:45.561Z,99530.47
2024-05-09T03:58:14.196Z,99523.84
2024-05-09T04:00:43.114Z,99524.38
2024-05-09T04:03:13.078Z,99526.30
2024-05-09T04:05:43.709Z,99523.52
2024-05-09T04:08:13.014Z,99527.36
2024-05-09T04:10:42.077Z,99527.21
2024-05-09T04:13:11.117Z,99532.45
2024-05-09T04:15:40.173Z,99528.45
2024-05-09T04:18:08.809Z,99531.77
2024-05-09T04:20:40.118Z,99532.67
2024-05-09T04:23:14.793Z,99538.42
2024-05-09T04:25:45.546Z,99540.37
2024-05-09T04:28:14.929Z,99537.42
2024-05-09T04:30:43.804Z,99535.69
2024-05-09T04:33:15.748Z,99534.66
2024-05-09T04:35:44.803Z,99535.54
2024-05-09T04:38:15.195Z,99538.88
2024-05-09T04:40:44.438Z,99540.46
2024-05-09T04:43:18.429Z,99542.25
2024-05-09T04:45:46.971Z,99544.54
2024-05-09T04:48:16.048Z,99547.16
2024-05-09T04:50:44.870Z,99548.05
2024-05-09T04:53:16.766Z,99549.98
2024-05-09T04:55:45.971Z,99554.33
2024-05-09T04:58:14.517Z,99553.13
2024-05-09T05:00:43.133Z,99552.95
2024-05-09T05:03:14.803Z,99553.48
2024-05-09T05:05:46.702Z,99555.39
2024-05-09T05:08:17.510Z,99554.33
2024-05-09T05:10:48.700Z,99551.71
2024-05-09T05:13:20.033Z,99551.69
2024-05-09T05:15:52.927Z,99549.75
2024-05-09T05:18:22.440Z,99552.35
2024-05-09T05:20:51.516Z,99554.95
2024-05-09T05:23:21.585Z,99554.20
2024-05-09T05:25:52.106Z,99554.82
2024-05-09T05:28:21.383Z,99554.88
2024-05-09T05:30:50.245Z,99562.26
2024-05-09T05:33:19.680Z,99561.30
2024-05-09T05:35:48.843Z,99568.44
2024-05-09T05:38:17.444Z,99567.37
2024-05-09T05:40:46.007Z,99562.28
2024-05-09T05:43:18.500Z,99563.56
2024-05-09T05:45:47.482Z,99564.99
2024-05-09T05:48:17.758Z,99566.21
2024-05-09T05:50:46.790Z,99567.04
2024-05-09T05:53:15.733Z,99565.63
2024-05-09T05:55:44.470Z,99565.14
2024-05-09T05:58:14.168Z,99564.89
2024-05-09T06:00:43.198Z,99562.73
2024-05-09T06:03:14.902Z,99559.16
2024-05-09T06:05:45.512Z,99557.89
2024-05-09T06:08:14.179Z,99555.50
2024-05-09T06:10:42.964Z,99557.38
2024-05-09T06:13:14.286Z,99553.90
2024-05-09T06:15:43.894Z,99555.34
2024-05-09T06:18:15.256Z,99552.66
2024-05-09T06:20:44.430Z,99553.41
2024-05-09T06:23:13.566Z,99553.34
2024-05-09T06:25:43.624Z,99550.34
2024-05-09T06:28:12.147Z,99544.56
2024-05-09T06:30:42.610Z,99541.09
2024-05-09T06:33:14.671Z,99542.20
2024-05-09T06:35:46.565Z,99539.95
2024-05-09T06:38:15.384Z,99541.45
2024-05-09T06:40:44.703Z,99540.67
2024-05-09T06:43:14.374Z,99539.23
2024-05-09T06:45:43.304Z,99533.48
2024-05-09T06:48:12.107Z,99531.89
2024-05-09T06:50:43.915Z,99527.48
2024-05-09T06:53:15.375Z,99528.52
2024-05-09T06:55:43.983Z,99527.64
2024-05-09T06:58:12.673Z,99526.22
2024-05-09T07:00:42.180Z,99528.42
2024-05-09T07:03:14.375Z,99520.73
2024-05-09T07:05:47.482Z,99517.69
2024-05-09T07:08:17.713Z,99516.70
2024-05-09T07:10:46.571Z,99519.48
2024-05-09T07:13:16.075Z,99516.99
2024-05-09T07:15:44.610Z,99512.67
2024-05-09T07:18:18.415Z,99510.00
2024-05-09T07:20:49.452Z,99511.66
2024-05-09T07:23:19.352Z,99511.56
2024-05-09T07:25:48.197Z,99508.86
2024-05-09T07:28:18.919Z,99509.73
2024-05-09T07:30:47.868Z,99511.63
2024-05-09T07:33:22.864Z,99510.56
2024-05-09T07:35:52.953Z,99512.51
2024-05-09T07:38:21.803Z,99516.71
2024-05-09T07:40:50.768Z,99516.08
2024-05-09T07:43:19.310Z,99512.98
2024-05-09T07:45:53.036Z,99511.02
2024-05-09T07:52:39.312Z,99508.45
2024-05-09T07:53:49.236Z,99508.61
2024-05-09T07:56:22.820Z,99509.55
2024-05-09T07:58:53.159Z,99512.05
2024-05-09T08:01:21.788Z,99511.70
2024-05-09T08:03:50.775Z,99508.10
2024-05-09T08:06:19.426Z,99505.80
2024-05-09T08:08:48.295Z,99500.55
2024-05-09T08:11:16.839Z,99498.73
2024-05-09T08:13:45.325Z,99497.27
2024-05-09T08:16:17.079Z,99503.26
2024-05-09T08:18:50.406Z,99511.21
2024-05-09T08:21:20.030Z,99506.33
2024-05-09T08:23:48.516Z,99507.45
2024-05-09T08:26:16.971Z,99508.73
2024-05-09T08:28:45.436Z,99507.66
2024-05-09T08:31:13.997Z,99507.93
2024-05-09T08:33:48.242Z,99504.30
2024-05-09T08:36:17.005Z,99505.84
2024-05-09T08:38:45.456Z,99504.06
2024-05-09T08:41:15.367Z,99502.27
2024-05-09T08:43:45.216Z,99504.90
2024-05-09T08:46:14.115Z,99502.71
2024-05-09T08:48:44.790Z,99504.70
2024-05-09T08:51:14.594Z,99507.44
2024-05-09T08:53:43.120Z,99506.86
2024-05-09T08:56:12.542Z,99511.13
2024-05-09T08:58:43.041Z,99508.92
2024-05-09T09:01:11.688Z,99510.48
2024-05-09T09:03:41.333Z,99510.58
2024-05-09T09:06:14.259Z,99509.20
2024-05-09T09:08:43.053Z,99510.02
2024-05-09T09:11:11.604Z,99509.67
2024-05-09T09:13:40.155Z,99506.53
2024-05-09T09:16:08.884Z,99502.91
2024-05-09T09:18:37.665Z,99501.58
2024-05-09T09:21:11.163Z,99503.76
2024-05-09T09:23:40.394Z,99504.91
2024-05-09T09:26:08.875Z,99499.46
2024-05-09T09:28:38.130Z,99504.17
2024-05-09T09:31:06.630Z,99501.42
2024-05-09T09:33:36.488Z,99498.89
2024-05-09T09:36:07.657Z,99496.63
2024-05-09T09:38:38.098Z,99496.58
2024-05-09T09:41:10.513Z,99492.23
2024-05-09T09:43:40.529Z,99493.08
2024-05-09T09:46:12.462Z,99495.02
2024-05-09T09:48:42.250Z,99493.47
2024-05-09T09:51:11.518Z,99493.05
2024-05-09T09:53:40.099Z,99486.89
2024-05-09T09:56:13.665Z,99492.08
2024-05-09T09:58:43.306Z,99494.58
2024-05-09T10:01:12.016Z,99492.02
2024-05-09T10:03:41.019Z,99490.23
2024-05-09T10:06:12.373Z,99481.14
2024-05-09T10:08:41.491Z,99482.36
2024-05-09T10:11:10.726Z,99482.78
2024-05-09T10:13:42.230Z,99477.63
2024-05-09T10:16:11.830Z,99479.73
2024-05-09T10:18:41.819Z,99480.30
2024-05-09T10:21:17.598Z,99480.48
2024-05-09T10:23:58.274Z,99479.73
2024-05-09T10:26:37.813Z,99475.84
2024-05-09T10:29:16.776Z,99478.70
2024-05-09T10:31:46.635Z,99479.20
2024-05-09T10:34:19.402Z,99475.66
2024-05-09T10:36:53.153Z,99474.83
2024-05-09T10:39:22.510Z,99476.46
2024-05-09T10:41:50.998Z,99474.43
2024-05-09T10:44:21.958Z,99472.71
2024-05-09T10:46:50.950Z,99471.14
2024-05-09T10:49:19.563Z,99466.64
2024-05-09T10:51:49.106Z,99467.39
2024-05-09T10:54:17.574Z,99467.67
2024-05-09T10:56:46.008Z,99468.91
2024-05-09T10:59:14.984Z,99461.44
2024-05-09T11:01:43.814Z,99462.02
2024-05-09T11:04:12.927Z,99458.74
2024-05-09T11:06:41.730Z,99452.20
2024-05-09T11:09:10.326Z,99452.48
2024-05-09T11:11:39.068Z,99451.03
2024-05-09T11:14:14.066Z,99447.24
2024-05-09T11:16:42.585Z,99445.06
2024-05-09T11:19:14.508Z,99447.91
2024-05-09T11:21:43.303Z,99445.38
2024-05-09T11:24:12.327Z,99442.70
2024-05-09T11:26:40.836Z,99442.59
2024-05-09T11:29:09.318Z,99438.66
2024-05-09T11:31:48.221Z,99437.93
2024-05-09T11:34:16.978Z,99439.65
2024-05-09T11:36:45.678Z,99439.33
2024-05-09T11:39:14.457Z,99437.86
2024-05-09T11:41:43.026Z,99436.06
2024-05-09T11:44:12.818Z,99442.73
2024-05-09T11:46:41.585Z,99445.63
2024-05-09T11:49:10.671Z,99436.86
2024-05-09T11:51:39.299Z,99434.88
2024-05-09T11:54:07.781Z,99431.28
2024-05-09T11:56:36.366Z,99428.52
2024-05-09T11:59:04.867Z,99433.15
2024-05-09T12:01:33.716Z,99426.35
2024-05-09T12:04:02.538Z,99424.57
2024-05-09T12:06:31.314Z,99421.70
2024-05-09T12:08:59.793Z,99419.27
2024-05-09T12:11:28.335Z,99414.44
2024-05-09T12:13:56.837Z,99420.48
2024-05-09T12:16:25.760Z,99413.83
2024-05-09T12:18:54.557Z,99414.63
2024-05-09T12:21:23.152Z,99411.07
2024-05-09T12:23:51.652Z,99408.95
2024-05-09T12:26:20.141Z,99404.45
2024-05-09T12:28:48.598Z,99404.59
2024-05-09T12:31:17.164Z,99403.38
2024-05-09T12:33:46.780Z,99403.71
2024-05-09T12:36:15.306Z,99398.89
2024-05-09T12:38:43.841Z,99399.10
2024-05-09T12:41:12.323Z,99398.76
2024-05-09T12:43:40.776Z,99400.04
2024-05-09T12:46:09.350Z,99392.04
2024-05-09T12:48:38.258Z,99385.94
2024-05-09T12:51:06.836Z,99382.09
2024-05-09T12:53:36.977Z,99376.75
2024-05-09T12:56:07.206Z,99374.84
2024-05-09T13:01:21.917Z,99366.21
2024-05-09T13:03:50.589Z,99360.58
2024-05-09T13:06:19.123Z,99364.39
2024-05-09T13:08:47.716Z,99363.60
2024-05-09T13:11:16.400Z,99361.95
2024-05-09T13:13:45.279Z,99359.50
2024-05-09T13:16:13.973Z,99362.48
2024-05-09T13:18:43.921Z,99360.56
2024-05-09T13:21:12.406Z,99358.39
2024-05-09T13:23:40.878Z,99358.53
2024-05-09T13:26:09.456Z,99355.66
2024-05-09T13:28:38.023Z,99358.79
2024-05-09T13:31:06.591Z,99353.21
2024-05-09T13:33:35.317Z,99350.27
2024-05-09T13:36:03.997Z,99348.23
2024-05-09T13:38:32.624Z,99347.91
2024-05-09T13:41:01.227Z,99347.50
2024-05-09T13:43:29.754Z,99342.45
2024-05-09T13:45:58.821Z,99337.22
2024-05-09T13:48:27.517Z,99335.56
2024-05-09T13:50:56.161Z,99335.27
2024-05-09T13:53:24.993Z,99329.97
2024-05-09T13:55:53.544Z,99328.56
2024-05-09T13:58:23.097Z,99328.88
2024-05-09T14:00:52.093Z,99328.66
2024-05-09T14:03:21.323Z,99331.02
2024-05-09T14:05:52.071Z,99325.65
2024-05-09T14:08:21.598Z,99320.06
2024-05-09T14:10:50.606Z,99321.18
2024-05-09T14:13:19.487Z,99316.51
2024-05-09T14:15:48.283Z,99317.31
2024-05-09T14:18:17.371Z,99314.64
2024-05-09T14:20:45.942Z,99314.97
2024-05-09T14:23:15.147Z,99313.91
2024-05-09T14:25:45.052Z,99313.66
2024-05-09T14:28:14.693Z,99312.38
2024-05-09T14:30:43.372Z,99315.14
2024-05-09T14:33:12.304Z,99309.64
2024-05-09T14:35:40.932Z,99311.38
2024-05-09T14:38:09.728Z,99309.54
2024-05-09T14:40:42.600Z,99302.70
2024-05-09T14:43:14.590Z,99308.30
2024-05-09T14:45:44.710Z,99304.95
2024-05-09T14:48:17.230Z,99299.77
2024-05-09T14:50:46.082Z,99297.55
2024-05-09T14:53:14.625Z,99297.89
2024-05-09T14:55:43.922Z,99292.19
2024-05-09T14:58:13.602Z,99284.20
2024-05-09T15:00:47.790Z,99281.46
2024-05-09T15:03:21.174Z,99279.88
2024-05-09T15:05:51.647Z,99277.99
2024-05-09T15:08:20.963Z,99281.41
2024-05-09T15:10:50.692Z,99279.87
2024-05-09T15:13:20.104Z,99280.54
2024-05-09T15:15:49.325Z,99280.39
2024-05-09T15:18:18.560Z,99278.02
2024-05-09T15:20:47.879Z,99276.02
2024-05-09T15:23:16.487Z,99276.50
2024-05-09T15:25:45.322Z,99273.38
2024-05-09T15:28:13.899Z,99271.11
2024-05-09T15:30:46.124Z,99269.86
2024-05-09T15:33:15.621Z,99267.78
2024-05-09T15:35:46.176Z,99267.32
2024-05-09T15:38:15.681Z,99271.30
2024-05-09T15:40:44.792Z,99269.17
2024-05-09T15:43:13.498Z,99270.95
2024-05-09T15:45:42.295Z,99271.14
2024-05-09T15:48:11.503Z,99272.05
2024-05-09T15:50:42.151Z,99272.33
2024-05-09T15:53:13.781Z,99269.49
2024-05-09T15:55:43.114Z,99266.64
2024-05-09T15:58:11.912Z,99265.77
2024-05-09T16:00:44.360Z,99260.57
2024-05-09T16:03:14.929Z,99259.30
2024-05-09T16:05:44.999Z,99257.67
2024-05-09T16:08:14.645Z,99253.52
2024-05-09T16:10:45.767Z,99257.33
2024-05-09T16:13:16.488Z,99259.38
2024-05-09T16:15:46.431Z,99256.10
2024-05-09T16:18:15.148Z,99257.14
2024-05-09T16:20:45.522Z,99257.09
2024-05-09T16:23:15.727Z,99257.71
2024-05-09T16:25:45.908Z,99258.14
2024-05-09T16:28:14.460Z,99252.83
2024-05-09T16:30:43.155Z,99252.38
2024-05-09T16:33:12.443Z,99249.48
2024-05-09T16:35:41.432Z,99252.45
2024-05-09T16:38:09.981Z,99249.40
2024-05-09T16:40:40.854Z,99252.14
2024-05-09T16:43:12.709Z,99251.11
2024-05-09T16:45:44.402Z,99253.36
2024-05-09T16:48:14.040Z,99250.83
2024-05-09T16:50:42.959Z,99252.52
2024-05-09T16:53:11.492Z,99250.66
2024-05-09T16:55:40.123Z,99253.04
2024-05-09T16:58:08.891Z,99248.17
2024-05-09T17:00:42.060Z,99253.29
2024-05-09T17:03:15.433Z,99254.47
2024-05-09T17:05:47.267Z,99256.41
2024-05-09T17:08:17.993Z,99258.67
2024-05-09T17:10:48.062Z,99255.91
2024-05-09T17:13:17.195Z,99252.66
2024-05-09T17:15:46.304Z,99254.90
2024-05-09T17:18:15.178Z,99252.04
2024-05-09T17:20:43.671Z,99252.52
2024-05-09T17:23:14.055Z,99253.71
2024-05-09T17:25:43.638Z,99254.90
2024-05-09T17:28:12.871Z,99255.66
2024-05-09T17:30:42.791Z,99257.91
2024-05-09T17:33:13.258Z,99256.98
2024-05-09T17:35:42.444Z,99259.93
2024-05-09T17:38:10.950Z,99259.85
2024-05-09T17:40:40.063Z,99259.56
2024-05-09T17:43:10.568Z,99258.41
2024-05-09T17:45:41.161Z,99256.70
2024-05-09T17:48:12.316Z,99258.61
2024-05-09T17:50:42.106Z,99261.03
2024-05-09T17:53:11.400Z,99262.96
2024-05-09T17:55:40.850Z,99265.08
2024-05-09T17:58:10.370Z,99271.23
2024-05-09T18:00:41.773Z,99269.81
2024-05-09T18:03:12.689Z,99275.13
2024-05-09T18:05:45.036Z,99275.50
2024-05-09T18:08:14.064Z,99280.66
2024-05-09T18:10:43.034Z,99282.59
2024-05-09T18:13:12.685Z,99280.46
2024-05-09T18:15:41.795Z,99279.96
2024-05-09T18:18:10.967Z,99282.07
2024-05-09T18:20:44.211Z,99285.03
2024-05-09T18:23:16.789Z,99289.10
2024-05-09T18:25:47.930Z,99293.67
2024-05-09T18:28:17.438Z,99293.84
2024-05-09T18:30:46.695Z,99299.59
2024-05-09T18:33:15.411Z,99300.95
2024-05-09T18:35:45.579Z,99303.86
2024-05-09T18:38:14.364Z,99307.80
2024-05-09T18:40:45.123Z,99317.08
2024-05-09T18:43:16.129Z,99311.17
2024-05-09T18:45:45.284Z,99319.75
2024-05-09T18:48:14.096Z,99318.42
2024-05-09T18:50:42.895Z,99321.18
2024-05-09T18:53:13.621Z,99322.52
2024-05-09T18:55:43.041Z,99324.58
2024-05-09T18:58:11.811Z,99331.02
2024-05-09T19:00:42.939Z,99339.33
2024-05-09T19:03:14.915Z,99341.99
2024-05-09T19:05:46.240Z,99342.55
2024-05-09T19:08:15.738Z,99343.27
2024-05-09T19:10:46.217Z,99346.77
2024-05-09T19:13:15.405Z,99344.30
2024-05-09T19:15:44.898Z,99342.72
2024-05-09T19:18:14.537Z,99346.23
2024-05-09T19:20:44.310Z,99347.66
2024-05-09T19:23:13.338Z,99351.21
2024-05-09T19:25:42.024Z,99353.86
2024-05-09T19:28:10.745Z,99357.45
2024-05-09T19:30:42.036Z,99357.34
2024-05-09T19:33:13.340Z,99361.02
2024-05-09T19:35:43.884Z,99360.26
2024-05-09T19:38:13.245Z,99362.77
2024-05-09T19:40:41.946Z,99366.01
2024-05-09T19:43:10.712Z,99371.84
2024-05-09T19:45:39.271Z,99374.45
2024-05-09T19:48:08.580Z,99368.45
2024-05-09T19:50:42.808Z,99370.60
2024-05-09T19:53:14.906Z,99369.14
2024-05-09T19:55:43.819Z,99371.40
2024-05-09T19:58:13.067Z,99372.26
2024-05-09T20:00:43.763Z,99373.12
2024-05-09T20:03:15.576Z,99377.14
2024-05-09T20:05:46.980Z,99378.35
2024-05-09T20:08:16.000Z,99379.05
2024-05-09T20:10:44.809Z,99379.73
2024-05-09T20:13:14.179Z,99378.12
2024-05-09T20:15:43.124Z,99378.77
2024-05-09T20:18:12.058Z,99376.24
2024-05-09T20:20:43.028Z,99379.69
2024-05-09T20:23:13.642Z,99381.05
2024-05-09T20:25:42.957Z,99381.50
2024-05-09T20:28:11.681Z,99381.45
2024-05-09T20:30:40.529Z,99382.80
2024-05-09T20:33:09.977Z,99378.14
2024-05-09T20:35:38.951Z,99384.41
2024-05-09T20:38:08.164Z,99381.52
2024-05-09T20:40:38.985Z,99375.69
2024-05-09T20:43:10.148Z,99373.54
2024-05-09T20:45:39.941Z,99373.48
2024-05-09T20:48:09.955Z,99369.41
2024-05-09T20:50:41.524Z,99374.98
2024-05-09T20:53:13.670Z,99369.48
2024-05-09T20:55:45.014Z,99369.95
2024-05-09T20:58:14.331Z,99370.41
2024-05-09T21:00:45.733Z,99369.83
2024-05-09T21:03:16.849Z,99371.16
2024-05-09T21:05:48.098Z,99373.23
2024-05-09T21:08:17.235Z,99372.64
2024-05-09T21:10:45.758Z,99377.70
2024-05-09T21:13:14.572Z,99378.15
2024-05-09T21:15:43.182Z,99379.31
2024-05-09T21:18:11.756Z,99379.92
2024-05-09T21:20:42.780Z,99380.21
2024-05-09T21:23:11.385Z,99381.52
2024-05-09T21:25:39.871Z,99381.65
2024-05-09T21:28:08.540Z,99387.36
2024-05-09T21:30:41.643Z,99383.42
2024-05-09T21:33:13.976Z,99379.11
2024-05-09T21:35:44.360Z,99380.06
2024-05-09T21:38:14.802Z,99383.83
2024-05-09T21:40:44.633Z,99383.19
2024-05-09T21:43:14.002Z,99386.95
2024-05-09T21:45:42.677Z,99385.13
2024-05-09T21:48:13.351Z,99387.01
2024-05-09T21:50:42.750Z,99388.48
2024-05-09T21:53:12.827Z,99389.79
2024-05-09T21:55:43.276Z,99384.23
2024-05-09T21:58:13.602Z,99384.63
2024-05-09T22:03:49.160Z,99386.77
2024-05-09T22:06:17.684Z,99387.73
2024-05-09T22:08:46.064Z,99389.58
2024-05-09T22:11:14.487Z,99388.94
2024-05-09T22:13:42.856Z,99384.27
2024-05-09T22:16:11.760Z,99384.70
2024-05-09T22:18:40.301Z,99383.48
2024-05-09T22:21:08.707Z,99384.42
2024-05-09T22:23:37.199Z,99388.15
2024-05-09T22:26:05.801Z,99384.55
2024-05-09T22:28:34.308Z,99388.29
2024-05-09T22:31:02.885Z,99388.67
2024-05-09T22:33:31.574Z,99387.00
2024-05-09T22:36:00.186Z,99387.73
2024-05-09T22:38:28.679Z,99389.18
2024-05-09T22:40:57.154Z,99387.33
2024-05-09T22:43:25.840Z,99391.91
2024-05-09T22:45:55.310Z,99393.55
2024-05-09T22:48:25.589Z,99393.95
2024-05-09T22:50:55.140Z,99399.05
2024-05-09T22:53:25.768Z,99398.42
2024-05-09T22:55:54.421Z,99393.55
2024-05-09T22:58:24.014Z,99395.17
2024-05-09T23:00:53.069Z,99399.42
2024-05-09T23:03:22.639Z,99395.44
2024-05-09T23:05:53.176Z,99393.40
2024-05-09T23:08:21.675Z,99389.39
2024-05-09T23:10:50.741Z,99394.16
2024-05-09T23:13:19.610Z,99388.95
2024-05-09T23:15:48.303Z,99389.15
2024-05-09T23:18:16.852Z,99389.34
2024-05-09T23:20:45.368Z,99384.81
2024-05-09T23:23:13.861Z,99383.27
2024-05-09T23:25:42.469Z,99381.70
2024-05-09T23:28:12.436Z,99380.52
2024-05-09T23:30:41.917Z,99378.65
2024-05-09T23:33:13.294Z,99378.31
2024-05-09T23:35:44.502Z,99373.27
2024-05-09T23:38:13.886Z,99378.17
2024-05-09T23:40:43.345Z,99378.55
2024-05-09T23:43:14.736Z,99373.70
2024-05-09T23:45:44.299Z,99372.84
2024-05-09T23:48:13.010Z,99369.91
2024-05-09T23:50:41.900Z,99371.52
2024-05-09T23:53:11.191Z,99367.86
2024-05-09T23:55:40.037Z,99365.09
2024-05-09T23:58:10.947Z,99365.29
